Time;durP1;ratioP1;P1;durP2;ratioP2;P2;SDS_P1;SDS_P2;PMS_P1;PMS_P2;Temp;Humidity;BMP_temperature;BMP_pressure;BME280_temperature;BME280_humidity;BME280_pressure;Samples;Min_cycle;Max_cycle;Signal;HPM_P1;HPM_P2
2022/02/23 00:01:52;;;;;;;6.18;2.45;;;;;;;;;;5051715;28;20354;-93
2022/02/23 00:04:18;;;;;;;6.80;2.33;;;;;;;;;;5036372;28;20189;-92
2022/02/23 00:06:45;;;;;;;8.70;2.50;;;;;;;;;;5039606;28;20187;-93
2022/02/23 00:09:17;;;;;;;6.93;2.20;;;;;;;;;;5039749;28;20449;-92
2022/02/23 00:11:43;;;;;;;6.68;2.30;;;;;;;;;;5051884;28;20209;-92
2022/02/23 00:14:09;;;;;;;4.72;2.42;;;;;;;;;;5037366;28;20198;-92
2022/02/23 00:16:35;;;;;;;6.88;2.65;;;;;;;;;;5036917;28;20214;-93
2022/02/23 00:19:01;;;;;;;7.33;2.30;;;;;;;;;;5038655;28;20258;-91
2022/02/23 00:21:27;;;;;;;3.33;2.13;;;;;;;;;;5052826;28;20429;-92
2022/02/23 00:23:53;;;;;;;4.72;2.20;;;;;;;;;;5024616;28;20194;-93
2022/02/23 00:26:19;;;;;;;4.40;1.80;;;;;;;;;;5038036;28;20209;-93
2022/02/23 00:28:45;;;;;;;10.33;2.90;;;;;;;;;;5051744;28;20441;-93
2022/02/23 00:31:14;;;;;;;9.10;2.30;;;;;;;;;;5039412;28;20448;-93
2022/02/23 00:33:41;;;;;;;6.68;2.60;;;;;;;;;;5026179;28;20469;-93
2022/02/23 00:36:06;;;;;;;7.22;2.85;;;;;;;;;;5024946;28;20199;-93
2022/02/23 00:38:33;;;;;;;5.13;2.35;;;;;;;;;;5024947;28;20175;-93
2022/02/23 00:40:58;;;;;;;9.85;3.58;;;;;;;;;;5010171;28;20191;-92
2022/02/23 00:43:26;;;;;;;6.53;2.30;;;;;;;;;;5029408;28;20195;-93
2022/02/23 00:45:52;;;;;;;7.82;3.67;;;;;;;;;;5028201;28;20949;-92
2022/02/23 00:48:18;;;;;;;6.82;2.72;;;;;;;;;;5024381;28;20203;-92
2022/02/23 00:50:44;;;;;;;5.40;2.90;;;;;;;;;;5034844;28;20257;-93
2022/02/23 00:53:13;;;;;;;5.20;2.30;;;;;;;;;;5026615;28;20763;-91
2022/02/23 00:55:39;;;;;;;7.00;2.70;;;;;;;;;;5031444;28;20809;-91
2022/02/23 00:58:05;;;;;;;6.15;2.50;;;;;;;;;;5020660;28;20199;-91
2022/02/23 01:00:31;;;;;;;6.18;2.53;;;;;;;;;;5031222;28;20186;-92
2022/02/23 01:02:57;;;;;;;5.82;2.47;;;;;;;;;;5042710;28;20214;-93
2022/02/23 01:05:23;;;;;;;5.40;2.30;;;;;;;;;;5034650;28;20285;-92
2022/02/23 01:07:48;;;;;;;4.20;2.47;;;;;;;;;;5024213;28;20644;-92
2022/02/23 01:10:14;;;;;;;7.93;2.50;;;;;;;;;;5023085;28;20201;-92
2022/02/23 01:12:44;;;;;;;4.63;2.15;;;;;;;;;;5038983;28;20457;-91
2022/02/23 01:15:10;;;;;;;7.97;2.53;;;;;;;;;;5047083;28;20205;-91
2022/02/23 01:17:38;;;;;;;5.95;2.65;;;;;;;;;;5023717;28;20209;-92
2022/02/23 01:20:04;;;;;;;7.80;2.35;;;;;;;;;;5025453;28;20183;-92
2022/02/23 01:22:30;;;;;;;15.98;3.30;;;;;;;;;;5030178;28;20194;-92
2022/02/23 01:24:56;;;;;;;9.15;3.30;;;;;;;;;;5025246;28;20186;-91
2022/02/23 01:27:22;;;;;;;7.22;2.30;;;;;;;;;;5041068;28;20269;-93
2022/02/23 01:29:48;;;;;;;5.63;2.47;;;;;;;;;;5054625;28;20200;-92
2022/02/23 01:32:14;;;;;;;9.07;2.80;;;;;;;;;;5024978;28;20179;-91
2022/02/23 01:34:43;;;;;;;7.10;2.17;;;;;;;;;;5036042;28;20190;-86
2022/02/23 01:37:09;;;;;;;6.03;1.90;;;;;;;;;;5029358;28;20516;-92
2022/02/23 01:39:35;;;;;;;6.97;2.20;;;;;;;;;;5025365;28;20214;-92
2022/02/23 01:42:01;;;;;;;6.70;3.20;;;;;;;;;;5025252;28;20202;-90
2022/02/23 01:44:27;;;;;;;7.13;2.53;;;;;;;;;;5029738;28;20179;-92
2022/02/23 01:46:53;;;;;;;7.70;2.63;;;;;;;;;;5023688;28;20668;-92
2022/02/23 01:49:19;;;;;;;4.60;2.30;;;;;;;;;;5029429;28;20194;-92
2022/02/23 01:51:45;;;;;;;7.87;2.00;;;;;;;;;;5026874;28;20194;-93
2022/02/23 01:54:14;;;;;;;5.57;2.55;;;;;;;;;;5062197;28;20457;-92
2022/02/23 01:56:40;;;;;;;6.38;2.30;;;;;;;;;;5053119;28;20167;-92
2022/02/23 01:59:06;;;;;;;9.85;2.80;;;;;;;;;;5029880;28;20214;-92
2022/02/23 02:01:32;;;;;;;5.25;2.40;;;;;;;;;;5036765;28;20649;-92
2022/02/23 02:03:58;;;;;;;7.22;2.20;;;;;;;;;;5031390;28;20197;-92
2022/02/23 02:06:24;;;;;;;9.88;3.50;;;;;;;;;;5026431;28;20261;-92
2022/02/23 02:08:50;;;;;;;10.27;2.53;;;;;;;;;;5066350;28;20245;-91
2022/02/23 02:11:16;;;;;;;10.70;2.90;;;;;;;;;;5024508;28;20451;-92
2022/02/23 02:13:41;;;;;;;5.40;2.92;;;;;;;;;;5033526;28;20497;-92
2022/02/23 02:16:07;;;;;;;9.73;3.00;;;;;;;;;;5026772;28;20179;-92
2022/02/23 02:18:33;;;;;;;10.80;3.00;;;;;;;;;;5037485;28;20537;-92
2022/02/23 02:20:59;;;;;;;5.75;2.65;;;;;;;;;;5023994;28;20430;-91
2022/02/23 02:23:25;;;;;;;7.53;3.00;;;;;;;;;;5044512;28;20202;-93
2022/02/23 02:25:51;;;;;;;8.73;3.07;;;;;;;;;;5027855;28;20183;-92
2022/02/23 02:28:17;;;;;;;8.30;2.97;;;;;;;;;;5023022;28;20529;-92
2022/02/23 02:30:43;;;;;;;5.25;2.35;;;;;;;;;;5025374;28;20441;-90
2022/02/23 02:33:10;;;;;;;7.30;2.33;;;;;;;;;;5023047;28;20199;-92
2022/02/23 02:35:36;;;;;;;5.57;2.80;;;;;;;;;;5022881;28;20175;-92
2022/02/23 02:38:06;;;;;;;4.80;2.33;;;;;;;;;;5023033;28;20675;-93
2022/02/23 02:40:33;;;;;;;12.95;3.80;;;;;;;;;;5028355;28;20226;-92
2022/02/23 02:42:59;;;;;;;7.82;2.42;;;;;;;;;;5023414;28;20187;-92
2022/02/23 02:45:25;;;;;;;9.38;2.60;;;;;;;;;;5037704;28;20325;-92
2022/02/23 02:47:51;;;;;;;6.30;2.55;;;;;;;;;;5046767;28;20174;-92
2022/02/23 02:50:17;;;;;;;8.30;2.63;;;;;;;;;;5013869;28;20195;-92
2022/02/23 02:52:43;;;;;;;11.40;2.15;;;;;;;;;;5033477;28;20238;-87
2022/02/23 02:55:09;;;;;;;3.03;1.67;;;;;;;;;;5027768;28;20187;-92
2022/02/23 02:57:38;;;;;;;9.55;2.20;;;;;;;;;;5023831;28;20200;-92
2022/02/23 03:00:04;;;;;;;7.32;2.25;;;;;;;;;;5022605;28;20190;-91
2022/02/23 03:02:30;;;;;;;5.22;2.90;;;;;;;;;;5026437;28;20174;-91
2022/02/23 03:04:56;;;;;;;5.90;2.97;;;;;;;;;;5022728;28;20187;-92
2022/02/23 03:07:22;;;;;;;6.43;2.78;;;;;;;;;;5031681;28;20422;-92
2022/02/23 03:09:48;;;;;;;3.72;2.10;;;;;;;;;;5013966;28;20178;-91
2022/02/23 03:12:14;;;;;;;7.32;3.10;;;;;;;;;;5026884;28;20179;-92
2022/02/23 03:14:43;;;;;;;8.73;2.50;;;;;;;;;;5029583;28;20194;-92
2022/02/23 03:17:09;;;;;;;3.80;2.03;;;;;;;;;;5025997;28;21030;-93
2022/02/23 03:19:35;;;;;;;17.65;3.30;;;;;;;;;;5031423;28;20225;-92
2022/02/23 03:22:01;;;;;;;3.47;2.15;;;;;;;;;;5012459;28;20254;-91
2022/02/23 03:24:27;;;;;;;6.95;2.70;;;;;;;;;;5026980;28;20235;-90
2022/02/23 03:26:53;;;;;;;5.45;2.38;;;;;;;;;;5028224;28;20194;-92
2022/02/23 03:29:19;;;;;;;4.25;2.35;;;;;;;;;;5038527;28;20182;-92
2022/02/23 03:31:45;;;;;;;14.77;3.75;;;;;;;;;;5031097;28;20201;-92
2022/02/23 03:34:11;;;;;;;9.55;2.33;;;;;;;;;;5033382;28;20233;-92
2022/02/23 03:36:37;;;;;;;7.35;3.63;;;;;;;;;;5026757;28;20193;-88
2022/02/23 03:39:04;;;;;;;4.60;2.00;;;;;;;;;;5054338;28;20218;-91
2022/02/23 03:41:30;;;;;;;10.23;3.25;;;;;;;;;;5029500;28;20179;-92
2022/02/23 03:43:56;;;;;;;6.78;2.35;;;;;;;;;;5030815;28;20194;-93
2022/02/23 03:46:22;;;;;;;4.10;2.27;;;;;;;;;;5029577;28;20183;-92
2022/02/23 03:48:48;;;;;;;5.28;2.40;;;;;;;;;;5042744;28;20448;-93
2022/02/23 03:51:14;;;;;;;3.57;1.90;;;;;;;;;;5041214;28;20183;-92
2022/02/23 03:53:41;;;;;;;3.25;1.83;;;;;;;;;;5029546;28;20508;-93
2022/02/23 03:56:38;;;;;;;8.75;2.92;;;;;;;;;;5032249;28;20201;-93
2022/02/23 03:58:53;;;;;;;16.88;2.72;;;;;;;;;;5015427;28;20190;-92
2022/02/23 04:01:19;;;;;;;8.30;2.40;;;;;;;;;;5026231;28;20190;-92
2022/02/23 04:03:45;;;;;;;5.10;2.03;;;;;;;;;;5028279;28;20190;-92
2022/02/23 04:06:12;;;;;;;5.00;1.75;;;;;;;;;;5032037;28;20229;-92
2022/02/23 04:08:38;;;;;;;5.50;2.22;;;;;;;;;;5056450;28;20186;-92
2022/02/23 04:11:04;;;;;;;6.80;2.77;;;;;;;;;;5032065;28;20183;-92
2022/02/23 04:13:30;;;;;;;4.75;1.98;;;;;;;;;;5030413;28;20544;-88
2022/02/23 04:15:56;;;;;;;6.47;2.38;;;;;;;;;;5029544;28;20179;-92
2022/02/23 04:18:22;;;;;;;7.15;2.58;;;;;;;;;;5023783;28;20190;-91
2022/02/23 04:20:48;;;;;;;3.83;2.60;;;;;;;;;;5027880;28;20175;-92
2022/02/23 04:23:14;;;;;;;9.05;2.45;;;;;;;;;;5030156;28;20191;-93
2022/02/23 04:25:43;;;;;;;5.40;2.47;;;;;;;;;;5029596;28;20191;-92
2022/02/23 04:28:09;;;;;;;11.90;2.65;;;;;;;;;;5029782;28;20444;-92
2022/02/23 04:30:35;;;;;;;8.30;3.05;;;;;;;;;;5026674;28;20194;-92
2022/02/23 04:33:01;;;;;;;8.95;3.53;;;;;;;;;;5034576;28;20202;-92
2022/02/23 04:35:27;;;;;;;4.57;1.83;;;;;;;;;;5029921;28;20183;-92
2022/02/23 04:37:53;;;;;;;5.70;2.17;;;;;;;;;;5029969;28;20194;-92
2022/02/23 04:40:19;;;;;;;6.77;2.10;;;;;;;;;;5025530;28;20243;-92
2022/02/23 04:42:46;;;;;;;9.10;2.35;;;;;;;;;;5022134;28;20433;-92
2022/02/23 04:45:12;;;;;;;12.15;3.15;;;;;;;;;;5007908;28;20178;-91
2022/02/23 04:47:38;;;;;;;7.13;2.67;;;;;;;;;;5045248;28;20175;-92
2022/02/23 04:50:05;;;;;;;10.18;2.90;;;;;;;;;;5025089;28;20203;-91
2022/02/23 04:52:31;;;;;;;6.25;2.90;;;;;;;;;;5029035;28;20187;-91
2022/02/23 04:54:57;;;;;;;5.28;2.10;;;;;;;;;;5025366;28;20193;-93
2022/02/23 04:57:24;;;;;;;4.50;2.20;;;;;;;;;;5041136;28;20179;-92
2022/02/23 04:59:50;;;;;;;7.97;2.85;;;;;;;;;;5039031;28;20275;-93
2022/02/23 05:02:17;;;;;;;8.98;2.90;;;;;;;;;;5029250;28;20186;-93
2022/02/23 05:04:43;;;;;;;5.55;2.10;;;;;;;;;;5013731;28;20190;-93
2022/02/23 05:07:09;;;;;;;7.45;2.70;;;;;;;;;;5028952;28;20286;-93
2022/02/23 05:09:37;;;;;;;10.95;2.22;;;;;;;;;;5009831;28;20190;-91
2022/02/23 05:12:03;;;;;;;11.68;2.50;;;;;;;;;;5024640;28;20190;-91
2022/02/23 05:14:29;;;;;;;5.10;2.55;;;;;;;;;;5013503;28;20233;-93
2022/02/23 05:16:55;;;;;;;7.60;2.97;;;;;;;;;;5028882;28;20191;-94
2022/02/23 05:19:21;;;;;;;5.82;2.60;;;;;;;;;;5036545;28;20191;-93
2022/02/23 05:21:47;;;;;;;6.38;2.20;;;;;;;;;;5027200;28;20186;-93
2022/02/23 05:24:13;;;;;;;5.25;2.28;;;;;;;;;;5023876;28;20179;-94
2022/02/23 05:26:39;;;;;;;9.32;2.60;;;;;;;;;;5027922;28;20246;-89
2022/02/23 05:29:05;;;;;;;7.35;2.40;;;;;;;;;;5030094;28;20187;-93
2022/02/23 05:31:31;;;;;;;10.77;3.78;;;;;;;;;;5028998;28;20218;-94
2022/02/23 05:33:57;;;;;;;7.10;3.07;;;;;;;;;;5034702;28;20211;-93
2022/02/23 05:36:23;;;;;;;5.72;2.72;;;;;;;;;;5067298;28;20464;-93
2022/02/23 05:38:49;;;;;;;7.15;2.80;;;;;;;;;;5025387;28;20215;-94
2022/02/23 05:41:15;;;;;;;8.57;3.03;;;;;;;;;;5028891;28;20183;-94
2022/02/23 05:43:44;;;;;;;7.95;2.50;;;;;;;;;;5024314;28;20560;-93
2022/02/23 05:46:12;;;;;;;3.13;2.40;;;;;;;;;;5028164;28;20225;-93
2022/02/23 05:48:38;;;;;;;4.47;2.50;;;;;;;;;;5050164;28;20191;-92
2022/02/23 05:51:04;;;;;;;8.02;2.97;;;;;;;;;;5023827;28;20203;-92
2022/02/23 05:53:30;;;;;;;13.20;2.78;;;;;;;;;;5012726;28;20225;-93
2022/02/23 05:55:56;;;;;;;5.60;2.63;;;;;;;;;;5028468;28;20190;-93
2022/02/23 05:58:22;;;;;;;3.15;1.98;;;;;;;;;;5036567;28;20182;-94
2022/02/23 06:00:48;;;;;;;16.02;3.15;;;;;;;;;;5033452;28;20267;-93
2022/02/23 06:03:14;;;;;;;6.90;2.53;;;;;;;;;;5038446;28;20209;-94
2022/02/23 06:05:43;;;;;;;3.55;2.20;;;;;;;;;;5039462;28;20175;-93
2022/02/23 06:08:09;;;;;;;6.35;2.78;;;;;;;;;;5037059;28;20281;-94
2022/02/23 06:10:35;;;;;;;8.37;2.53;;;;;;;;;;5033936;28;20198;-93
2022/02/23 06:13:01;;;;;;;7.32;2.53;;;;;;;;;;5029053;28;20474;-92
2022/02/23 06:15:27;;;;;;;9.52;2.65;;;;;;;;;;5023371;28;20189;-93
2022/02/23 06:17:53;;;;;;;6.75;2.80;;;;;;;;;;5037576;28;20179;-93
2022/02/23 06:20:19;;;;;;;9.88;3.03;;;;;;;;;;5027281;28;20241;-94
2022/02/23 06:22:45;;;;;;;6.00;2.50;;;;;;;;;;5023377;28;20195;-93
2022/02/23 06:25:11;;;;;;;11.88;2.92;;;;;;;;;;5028006;28;20193;-93
2022/02/23 06:27:37;;;;;;;7.05;2.30;;;;;;;;;;5025334;28;20531;-92
2022/02/23 06:30:03;;;;;;;5.18;2.97;;;;;;;;;;5022966;28;20193;-94
2022/02/23 06:32:29;;;;;;;8.45;4.22;;;;;;;;;;5029746;28;20198;-94
2022/02/23 06:34:55;;;;;;;12.52;7.80;;;;;;;;;;5022882;28;20197;-94
2022/02/23 06:37:21;;;;;;;12.93;8.35;;;;;;;;;;5031670;28;20187;-93
2022/02/23 06:39:49;;;;;;;7.45;5.57;;;;;;;;;;5025988;28;20293;-94
2022/02/23 06:42:15;;;;;;;13.85;3.67;;;;;;;;;;5023274;28;20167;-93
2022/02/23 06:44:43;;;;;;;75.13;68.57;;;;;;;;;;5026848;28;20205;-93
2022/02/23 06:47:09;;;;;;;47.38;43.42;;;;;;;;;;5043968;28;20191;-93
2022/02/23 06:49:39;;;;;;;68.10;61.95;;;;;;;;;;5044403;28;20342;-93
2022/02/23 06:52:05;;;;;;;22.15;13.10;;;;;;;;;;5061495;28;20206;-93
2022/02/23 06:54:32;;;;;;;20.90;8.90;;;;;;;;;;5023845;28;20213;-93
2022/02/23 06:56:58;;;;;;;14.75;5.32;;;;;;;;;;5048981;28;20260;-93
2022/02/23 06:59:24;;;;;;;18.35;5.25;;;;;;;;;;5028917;28;20175;-91
2022/02/23 07:01:50;;;;;;;26.48;5.55;;;;;;;;;;5025616;28;20181;-93
2022/02/23 07:04:16;;;;;;;22.15;5.78;;;;;;;;;;5027797;28;20190;-93
2022/02/23 07:06:42;;;;;;;18.30;5.15;;;;;;;;;;5031868;28;20191;-92
2022/02/23 07:09:09;;;;;;;14.05;4.07;;;;;;;;;;5038014;28;20187;-93
2022/02/23 07:11:35;;;;;;;16.58;7.63;;;;;;;;;;5058803;28;20209;-93
2022/02/23 07:14:03;;;;;;;21.58;9.80;;;;;;;;;;5036803;28;20214;-93
2022/02/23 07:16:29;;;;;;;16.95;8.05;;;;;;;;;;5030543;28;20187;-93
2022/02/23 07:18:55;;;;;;;19.13;6.65;;;;;;;;;;5024284;28;20213;-95
2022/02/23 07:21:21;;;;;;;19.80;6.25;;;;;;;;;;5029356;28;20186;-94
2022/02/23 07:23:47;;;;;;;13.88;7.28;;;;;;;;;;5033273;28;20825;-91
2022/02/23 07:26:17;;;;;;;18.25;5.90;;;;;;;;;;5021992;28;20174;-90
2022/02/23 07:28:46;;;;;;;13.23;5.20;;;;;;;;;;5018033;28;20183;-95
2022/02/23 07:31:19;;;;;;;13.00;5.30;;;;;;;;;;5029587;28;20191;-93
2022/02/23 07:33:45;;;;;;;8.18;3.75;;;;;;;;;;5032797;28;20210;-88
2022/02/23 07:36:11;;;;;;;7.35;4.55;;;;;;;;;;5035328;28;20189;-92
2022/02/23 07:38:38;;;;;;;10.38;4.32;;;;;;;;;;5034085;28;20179;-94
2022/02/23 07:41:06;;;;;;;7.10;5.38;;;;;;;;;;5030310;28;20681;-93
2022/02/23 07:43:33;;;;;;;8.45;3.65;;;;;;;;;;5029694;28;20246;-92
2022/02/23 07:45:59;;;;;;;7.82;4.00;;;;;;;;;;5031825;28;20183;-92
2022/02/23 07:48:26;;;;;;;9.52;6.38;;;;;;;;;;5027294;28;20270;-94
2022/02/23 08:06:29;;;;;;;4.15;2.95;;;;;;;;;;4990181;28;20239;-94
2022/02/23 08:21:35;;;;;;;;;;;;;;;;;;;;;
2022/02/23 08:24:07;;;;;;;3.97;3.05;;;;;;;;;;4918584;29;20265;-93
2022/02/23 08:26:42;;;;;;;5.00;3.17;;;;;;;;;;4922924;29;20193;-93
2022/02/23 08:29:08;;;;;;;10.80;4.50;;;;;;;;;;4920488;29;20196;-90
2022/02/23 08:31:35;;;;;;;76.15;25.65;;;;;;;;;;4905273;29;20226;-83
2022/02/23 08:34:01;;;;;;;47.88;17.33;;;;;;;;;;4920933;29;20346;-82
2022/02/23 08:36:27;;;;;;;27.67;11.15;;;;;;;;;;4926014;29;20213;-82
2022/02/23 08:38:53;;;;;;;25.08;8.35;;;;;;;;;;4926546;29;20229;-83
2022/02/23 08:41:20;;;;;;;11.88;6.65;;;;;;;;;;4909672;29;20510;-83
2022/02/23 08:43:46;;;;;;;14.30;6.65;;;;;;;;;;4959294;28;20717;-82
2022/02/23 08:46:12;;;;;;;11.95;6.13;;;;;;;;;;4963141;28;20191;-82
2022/02/23 08:48:38;;;;;;;13.18;6.50;;;;;;;;;;4963514;28;20199;-82
2022/02/23 08:51:04;;;;;;;13.88;5.90;;;;;;;;;;4988585;28;20229;-82
2022/02/23 08:53:30;;;;;;;9.70;5.77;;;;;;;;;;5012735;28;20195;-82
2022/02/23 08:55:56;;;;;;;9.73;5.57;;;;;;;;;;5013582;28;20929;-82
2022/02/23 08:58:22;;;;;;;9.98;5.85;;;;;;;;;;5013229;28;20603;-82
2022/02/23 09:00:48;;;;;;;9.97;5.40;;;;;;;;;;5023782;28;20178;-82
2022/02/23 09:03:15;;;;;;;10.13;5.82;;;;;;;;;;5038136;28;20430;-82
2022/02/23 09:05:41;;;;;;;11.35;6.88;;;;;;;;;;5012490;28;20175;-82
2022/02/23 09:08:07;;;;;;;8.88;5.40;;;;;;;;;;5037123;28;20210;-81
2022/02/23 09:10:33;;;;;;;10.48;6.25;;;;;;;;;;5020009;28;20659;-81
2022/02/23 09:12:59;;;;;;;10.80;6.20;;;;;;;;;;5024095;28;20207;-82
2022/02/23 09:15:25;;;;;;;11.93;6.95;;;;;;;;;;5037280;28;20190;-82
2022/02/23 09:17:51;;;;;;;14.10;6.43;;;;;;;;;;5049807;28;20179;-81
2022/02/23 09:20:17;;;;;;;10.65;6.70;;;;;;;;;;5044314;28;20190;-82
2022/02/23 09:22:43;;;;;;;12.85;7.05;;;;;;;;;;5028775;28;20544;-81
2022/02/23 09:25:09;;;;;;;11.90;7.10;;;;;;;;;;5024017;28;20187;-82
2022/02/23 09:27:35;;;;;;;14.45;6.68;;;;;;;;;;5024101;28;20499;-81
2022/02/23 09:30:02;;;;;;;10.60;6.20;;;;;;;;;;5036864;28;20199;-81
2022/02/23 09:32:28;;;;;;;14.48;6.63;;;;;;;;;;5013638;28;20167;-82
2022/02/23 09:34:54;;;;;;;9.05;6.60;;;;;;;;;;5012660;28;20190;-81
2022/02/23 09:37:20;;;;;;;14.55;7.13;;;;;;;;;;5027867;28;20194;-81
2022/02/23 09:39:46;;;;;;;13.52;6.68;;;;;;;;;;5026097;28;20594;-82
2022/02/23 09:42:12;;;;;;;11.07;6.70;;;;;;;;;;5023376;28;20182;-82
2022/02/23 09:44:41;;;;;;;10.88;6.25;;;;;;;;;;5024666;28;20428;-82
2022/02/23 09:47:08;;;;;;;17.00;7.00;;;;;;;;;;5012437;28;20187;-80
2022/02/23 09:49:35;;;;;;;9.63;7.03;;;;;;;;;;5027474;28;20186;-81
2022/02/23 09:52:01;;;;;;;12.95;5.70;;;;;;;;;;5012675;28;20183;-82
2022/02/23 09:54:27;;;;;;;17.33;7.30;;;;;;;;;;5023212;28;20224;-81
2022/02/23 09:56:53;;;;;;;11.68;5.85;;;;;;;;;;5024761;28;20213;-81
2022/02/23 09:59:21;;;;;;;7.85;5.72;;;;;;;;;;5011790;28;20621;-81
2022/02/23 10:01:48;;;;;;;8.90;5.13;;;;;;;;;;5023028;28;20186;-81
2022/02/23 10:04:17;;;;;;;12.00;6.00;;;;;;;;;;5027618;28;20190;-81
2022/02/23 10:06:43;;;;;;;11.18;6.00;;;;;;;;;;5009940;28;20174;-81
2022/02/23 10:09:11;;;;;;;9.95;6.28;;;;;;;;;;5022877;28;20183;-81
2022/02/23 10:11:38;;;;;;;9.40;5.75;;;;;;;;;;5021763;28;20174;-81
2022/02/23 10:14:04;;;;;;;12.88;6.15;;;;;;;;;;5022743;28;20209;-81
2022/02/23 10:16:39;;;;;;;12.07;6.47;;;;;;;;;;5010904;28;20183;-81
2022/02/23 10:19:08;;;;;;;11.25;6.75;;;;;;;;;;5026452;28;20186;-81
2022/02/23 10:21:48;;;;;;;16.42;7.85;;;;;;;;;;5023087;28;20658;-82
2022/02/23 10:24:23;;;;;;;14.82;6.85;;;;;;;;;;5022316;28;20174;-81
2022/02/23 10:26:56;;;;;;;12.45;7.18;;;;;;;;;;5037249;28;20521;-80
2022/02/23 10:29:30;;;;;;;16.33;9.55;;;;;;;;;;5027278;28;20248;-82
2022/02/23 10:31:56;;;;;;;14.60;9.30;;;;;;;;;;5026667;28;20214;-82
2022/02/23 10:34:22;;;;;;;19.05;9.05;;;;;;;;;;5026448;28;20206;-82
2022/02/23 10:37:17;;;;;;;21.80;11.32;;;;;;;;;;5007834;28;20226;-82
2022/02/23 10:39:44;;;;;;;17.83;10.52;;;;;;;;;;5010677;28;20222;-82
2022/02/23 10:42:11;;;;;;;17.58;11.30;;;;;;;;;;5038585;28;20444;-82
2022/02/23 10:44:42;;;;;;;22.65;8.70;;;;;;;;;;5006414;28;20182;-82
2022/02/23 10:47:08;;;;;;;21.52;7.65;;;;;;;;;;5026053;28;20270;-82
2022/02/23 10:49:34;;;;;;;15.00;7.45;;;;;;;;;;5011419;28;20183;-82
2022/02/23 10:52:06;;;;;;;20.05;7.93;;;;;;;;;;5026295;28;20205;-82
2022/02/23 10:54:32;;;;;;;16.23;6.90;;;;;;;;;;5023073;28;20297;-82
2022/02/23 10:56:58;;;;;;;16.88;6.72;;;;;;;;;;5007570;28;20175;-82
2022/02/23 10:59:24;;;;;;;14.82;6.18;;;;;;;;;;5011704;28;20195;-82
2022/02/23 11:01:51;;;;;;;11.55;5.75;;;;;;;;;;5026572;28;20506;-82
2022/02/23 11:04:19;;;;;;;12.30;3.88;;;;;;;;;;5026716;28;20630;-83
2022/02/23 11:06:48;;;;;;;11.20;3.63;;;;;;;;;;5024567;28;20182;-83
2022/02/23 11:09:14;;;;;;;14.50;4.05;;;;;;;;;;5006786;28;20175;-82
2022/02/23 11:11:40;;;;;;;9.98;3.58;;;;;;;;;;5037363;28;20191;-82
2022/02/23 11:14:10;;;;;;;8.65;3.50;;;;;;;;;;5026392;28;20274;-83
2022/02/23 11:16:36;;;;;;;10.82;3.75;;;;;;;;;;5025359;28;20183;-84
2022/02/23 11:19:03;;;;;;;17.02;4.63;;;;;;;;;;5026073;28;20544;-83
2022/02/23 11:21:34;;;;;;;6.60;2.88;;;;;;;;;;5022533;28;20201;-83
2022/02/23 11:24:01;;;;;;;7.85;2.55;;;;;;;;;;5035139;28;20175;-83
2022/02/23 11:26:32;;;;;;;7.82;2.45;;;;;;;;;;5022288;28;20189;-82
2022/02/23 11:29:06;;;;;;;5.82;1.92;;;;;;;;;;5011286;28;20179;-84
2022/02/23 11:31:35;;;;;;;3.97;1.98;;;;;;;;;;5025571;28;20183;-82
2022/02/23 11:34:01;;;;;;;8.32;3.47;;;;;;;;;;5014504;28;20199;-82
2022/02/23 11:36:33;;;;;;;8.73;3.10;;;;;;;;;;5025471;28;20179;-82
2022/02/23 11:39:18;;;;;;;9.00;3.25;;;;;;;;;;5038270;28;20235;-83
2022/02/23 11:41:52;;;;;;;9.30;3.17;;;;;;;;;;5038949;28;20181;-84
2022/02/23 11:44:20;;;;;;;6.70;3.33;;;;;;;;;;5016210;28;20179;-83
2022/02/23 11:47:04;;;;;;;11.57;3.90;;;;;;;;;;5017047;28;20197;-82
2022/02/23 11:49:32;;;;;;;3.83;2.67;;;;;;;;;;5019956;28;20198;-83
2022/02/23 11:52:17;;;;;;;7.70;2.10;;;;;;;;;;5052867;28;20183;-83
2022/02/23 11:54:59;;;;;;;7.45;2.25;;;;;;;;;;5025290;28;20202;-82
2022/02/23 11:57:38;;;;;;;10.18;2.58;;;;;;;;;;5041874;28;20182;-83
2022/02/23 12:00:06;;;;;;;5.35;2.25;;;;;;;;;;5050044;28;20525;-83
2022/02/23 12:02:32;;;;;;;10.15;3.05;;;;;;;;;;5017052;28;20179;-84
2022/02/23 12:04:59;;;;;;;6.27;2.70;;;;;;;;;;5017481;28;20198;-85
2022/02/23 12:07:26;;;;;;;5.15;2.42;;;;;;;;;;5030875;28;20445;-85
2022/02/23 12:09:58;;;;;;;6.50;2.63;;;;;;;;;;5019792;28;20213;-83
2022/02/23 12:12:45;;;;;;;11.10;2.40;;;;;;;;;;5009290;28;20185;-81
2022/02/23 12:15:11;;;;;;;7.72;2.78;;;;;;;;;;5038254;28;20182;-83
2022/02/23 12:17:43;;;;;;;3.10;2.28;;;;;;;;;;5052320;28;20217;-83
2022/02/23 12:20:28;;;;;;;5.20;3.50;;;;;;;;;;5022328;28;20245;-84
2022/02/23 12:23:26;;;;;;;5.15;2.53;;;;;;;;;;5019514;28;20363;-83
2022/02/23 12:25:55;;;;;;;5.90;1.50;;;;;;;;;;4979387;28;20263;-83
2022/02/23 12:28:42;;;;;;;3.55;1.50;;;;;;;;;;5012511;28;20230;-83
2022/02/23 12:31:34;;;;;;;8.50;1.52;;;;;;;;;;5019356;28;20179;-80
2022/02/23 12:34:02;;;;;;;3.88;1.13;;;;;;;;;;4972450;28;20223;-86
2022/02/23 12:36:31;;;;;;;3.90;1.58;;;;;;;;;;4985460;28;20192;-85
2022/02/23 12:38:58;;;;;;;5.57;2.00;;;;;;;;;;4992904;28;20233;-85
2022/02/23 12:41:26;;;;;;;3.70;1.48;;;;;;;;;;4980879;28;20709;-82
2022/02/23 12:44:03;;;;;;;5.03;1.55;;;;;;;;;;5002541;28;20183;-87
2022/02/23 12:46:31;;;;;;;6.45;1.30;;;;;;;;;;5006957;28;20560;-82
2022/02/23 12:48:58;;;;;;;5.20;2.20;;;;;;;;;;5005322;28;20308;-84
2022/02/23 12:51:24;;;;;;;2.58;1.40;;;;;;;;;;5005807;28;20189;-86
2022/02/23 12:53:51;;;;;;;3.25;1.48;;;;;;;;;;4984367;28;20203;-85
2022/02/23 12:56:20;;;;;;;4.15;1.35;;;;;;;;;;5007711;28;20187;-85
2022/02/23 12:58:47;;;;;;;4.53;1.25;;;;;;;;;;5008344;28;20195;-84
2022/02/23 13:01:23;;;;;;;3.42;1.23;;;;;;;;;;5006756;28;20785;-83
2022/02/23 13:03:50;;;;;;;11.55;2.33;;;;;;;;;;5012292;28;20235;-82
2022/02/23 13:06:16;;;;;;;5.68;1.58;;;;;;;;;;5027351;28;20183;-83
2022/02/23 13:08:43;;;;;;;6.65;1.63;;;;;;;;;;5035039;28;20235;-85
2022/02/23 13:11:09;;;;;;;3.10;1.42;;;;;;;;;;5025130;28;20191;-85
2022/02/23 13:13:39;;;;;;;4.80;1.65;;;;;;;;;;5035526;28;20211;-84
2022/02/23 13:16:05;;;;;;;6.18;1.70;;;;;;;;;;5023342;28;20187;-85
2022/02/23 13:18:31;;;;;;;3.10;1.55;;;;;;;;;;5009259;28;20182;-83
2022/02/23 13:21:11;;;;;;;7.32;2.13;;;;;;;;;;5020588;28;20179;-84
2022/02/23 13:23:56;;;;;;;2.58;1.33;;;;;;;;;;5011782;28;20178;-84
2022/02/23 13:26:33;;;;;;;5.25;1.40;;;;;;;;;;5009271;28;20192;-82
2022/02/23 13:29:05;;;;;;;7.22;1.80;;;;;;;;;;5030179;28;20198;-82
2022/02/23 13:31:42;;;;;;;4.28;1.98;;;;;;;;;;5022794;28;20191;-83
2022/02/23 13:34:15;;;;;;;3.45;1.35;;;;;;;;;;5018112;28;20213;-83
2022/02/23 13:36:41;;;;;;;6.78;1.75;;;;;;;;;;5024707;28;20178;-83
2022/02/23 13:39:34;;;;;;;7.00;1.67;;;;;;;;;;5007937;28;20215;-84
2022/02/23 13:42:00;;;;;;;5.38;1.73;;;;;;;;;;5018378;28;20178;-83
2022/02/23 13:44:30;;;;;;;4.73;1.30;;;;;;;;;;5013041;28;20183;-83
2022/02/23 13:46:57;;;;;;;3.60;1.38;;;;;;;;;;5014341;28;20955;-84
2022/02/23 13:49:24;;;;;;;5.82;1.70;;;;;;;;;;5027220;28;20237;-83
2022/02/23 13:51:50;;;;;;;4.82;2.40;;;;;;;;;;5045366;28;20187;-83
2022/02/23 13:54:16;;;;;;;3.58;1.55;;;;;;;;;;5007826;28;20207;-85
2022/02/23 13:56:45;;;;;;;4.70;1.60;;;;;;;;;;5032492;28;20231;-85
2022/02/23 13:59:15;;;;;;;9.57;3.65;;;;;;;;;;5053682;28;20186;-87
2022/02/23 14:01:59;;;;;;;11.20;6.40;;;;;;;;;;5026286;28;20189;-83
2022/02/23 14:04:35;;;;;;;6.18;1.67;;;;;;;;;;5018187;28;20278;-85
2022/02/23 14:07:01;;;;;;;6.30;2.00;;;;;;;;;;5030045;28;20182;-83
2022/02/23 14:09:27;;;;;;;6.65;2.75;;;;;;;;;;5048279;28;20221;-82
2022/02/23 14:11:58;;;;;;;3.15;1.63;;;;;;;;;;5019785;28;20198;-82
2022/02/23 14:14:25;;;;;;;4.13;1.73;;;;;;;;;;5027872;28;20213;-81
2022/02/23 14:16:52;;;;;;;7.70;1.85;;;;;;;;;;5012809;28;20179;-85
2022/02/23 14:19:20;;;;;;;5.88;2.60;;;;;;;;;;5037338;28;20187;-82
2022/02/23 14:21:56;;;;;;;7.40;2.38;;;;;;;;;;5035460;28;20193;-82
2022/02/23 14:24:25;;;;;;;4.22;2.00;;;;;;;;;;5029340;28;20186;-82
2022/02/23 14:26:56;;;;;;;11.48;3.35;;;;;;;;;;5035795;28;20188;-83
2022/02/23 14:29:36;;;;;;;7.45;2.50;;;;;;;;;;5021507;28;20217;-83
2022/02/23 14:32:15;;;;;;;8.02;2.13;;;;;;;;;;5032688;28;20182;-85
2022/02/23 14:34:47;;;;;;;5.90;2.30;;;;;;;;;;5037454;28;20210;-82
2022/02/23 14:37:18;;;;;;;9.10;2.90;;;;;;;;;;5021457;28;20615;-83
2022/02/23 14:39:44;;;;;;;8.32;2.50;;;;;;;;;;5028724;28;20301;-83
2022/02/23 14:42:11;;;;;;;6.28;2.33;;;;;;;;;;5039707;28;20171;-83
2022/02/23 14:44:37;;;;;;;7.40;2.47;;;;;;;;;;5051804;28;20182;-85
2022/02/23 14:47:05;;;;;;;4.07;1.92;;;;;;;;;;5020171;28;20178;-85
2022/02/23 14:49:31;;;;;;;7.53;2.47;;;;;;;;;;5032670;28;20237;-84
2022/02/23 14:51:57;;;;;;;6.65;2.40;;;;;;;;;;5037440;28;20182;-83
2022/02/23 14:54:23;;;;;;;5.00;2.70;;;;;;;;;;5025192;28;20206;-85
2022/02/23 14:56:49;;;;;;;7.28;2.67;;;;;;;;;;5036422;28;20196;-85
2022/02/23 14:59:15;;;;;;;6.85;2.70;;;;;;;;;;5026082;28;20193;-84
2022/02/23 15:01:41;;;;;;;7.35;2.90;;;;;;;;;;5014135;28;20187;-85
2022/02/23 15:04:08;;;;;;;6.43;2.42;;;;;;;;;;5032110;28;20217;-83
2022/02/23 15:06:34;;;;;;;9.93;2.47;;;;;;;;;;5042733;28;20245;-84
2022/02/23 15:09:00;;;;;;;8.23;3.03;;;;;;;;;;5029116;28;20209;-84
2022/02/23 15:11:26;;;;;;;5.13;2.58;;;;;;;;;;5050295;28;20202;-84
2022/02/23 15:13:53;;;;;;;8.60;5.20;;;;;;;;;;5032968;28;20209;-85